Terminal Aerodrome Forecast
Issued by NWS St Louis, MO

Home | Current Version | Previous Version | Text Only | Print | Product List | Glossary On
Versions: 1 2 3 4 5 6 7 8 9 10 11 12 13 14 15 16 17 18 19
000
FTUS43 KLSX 231700
TAFCOU
TAF
KCOU 231722Z 2318/2418 12012KT P6SM BKN100
     FM232100 13013G21KT P6SM BKN100
     FM240300 14013KT P6SM SCT150 WS020/18045KT
     FM241400 16014G24KT 6SM -SHRA VCTS BKN040CB=

USA.gov is the U.S. government's official web portal to all federal, state and local government web resources and services.